Callawassie Island, South Carolina
Current Conditions -  °F | °C
As of 1:50 PM on Friday 21 Nov 2014 (Local Time) from KHXD Reporting Station
Clear Clear  
Wind Chill: 66°   Ceiling: Unl
Heat Index: 66°   Visibility: 10mi
Dew Point: 36°   Wind: 8mph
Humidity: 32%   Direction: 30°NNE
Pressure: 30.35"   Gusts: NA
Location:  32.3283°N, 80.8483°W
Report Text: KHXD 211850Z 03007KT 10SM SKC 19/02 A3035
Loading
Personal Weather Stations






























Interactive Weather Map New forecast layout! Learn more

10-Day Weather Forecast

Advertisements
Track Severe Weather on mobile